createdAt,value
2016-08-19T00:00:18.827Z,10.92
2016-08-19T00:01:18.118Z,10.87
2016-08-19T00:02:18.237Z,10.86
2016-08-19T00:03:18.847Z,10.97
2016-08-19T00:04:18.891Z,10.94
2016-08-19T00:05:18.890Z,10.94
2016-08-19T00:06:18.935Z,10.92
2016-08-19T00:07:18.943Z,10.89
2016-08-19T00:08:19.074Z,10.84
2016-08-19T00:09:18.265Z,10.86
2016-08-19T00:10:18.306Z,10.84
2016-08-19T00:11:18.316Z,10.79
2016-08-19T00:12:19.094Z,10.8
2016-08-19T00:13:19.053Z,10.76
2016-08-19T00:14:18.366Z,10.76
2016-08-19T00:15:18.394Z,10.71
2016-08-19T00:16:19.108Z,10.75
2016-08-19T00:17:19.849Z,10.75
2016-08-19T00:18:18.453Z,10.76
2016-08-19T00:19:19.231Z,10.72
2016-08-19T00:20:19.901Z,10.71
2016-08-19T00:21:19.240Z,10.71
2016-08-19T00:22:19.235Z,10.72
2016-08-19T00:23:20.027Z,10.76
2016-08-19T00:24:19.275Z,10.69
2016-08-19T00:25:19.383Z,10.69
2016-08-19T00:26:19.321Z,10.68
2016-08-19T00:27:19.334Z,10.69
2016-08-19T00:28:19.343Z,10.64
2016-08-19T00:29:20.082Z,10.62
2016-08-19T00:30:19.395Z,10.67
2016-08-19T00:31:19.414Z,10.62
2016-08-19T00:32:18.783Z,10.67
2016-08-19T00:33:20.151Z,10.76
2016-08-19T00:34:20.261Z,10.75
2016-08-19T00:35:20.193Z,10.79
2016-08-19T00:36:20.243Z,10.77
2016-08-19T00:37:19.523Z,10.77
2016-08-19T00:38:18.852Z,10.71
2016-08-19T00:39:19.562Z,10.77
2016-08-19T00:40:19.593Z,10.68
2016-08-19T00:41:18.994Z,10.71
2016-08-19T00:42:19.643Z,10.79
2016-08-19T00:43:18.942Z,10.68
2016-08-19T00:44:19.669Z,10.72
2016-08-19T00:45:18.984Z,10.72
2016-08-19T00:46:19.710Z,10.76
2016-08-19T00:47:20.443Z,10.76
2016-08-19T00:48:19.045Z,10.76
2016-08-19T00:49:19.053Z,10.75
2016-08-19T00:50:19.788Z,10.72
2016-08-19T00:51:19.112Z,10.71
2016-08-19T00:52:19.124Z,10.75
2016-08-19T00:53:19.136Z,10.75
2016-08-19T00:54:19.865Z,10.71
2016-08-19T00:55:20.594Z,10.72
2016-08-19T00:56:19.912Z,10.75
2016-08-19T00:57:20.641Z,10.67
2016-08-19T00:58:19.998Z,10.76
2016-08-19T00:59:20.678Z,10.65
2016-08-19T01:00:19.991Z,10.75
2016-08-19T01:01:20.014Z,10.61
2016-08-19T01:02:20.031Z,10.61
2016-08-19T01:03:20.041Z,10.51
2016-08-19T01:04:19.353Z,10.57
2016-08-19T01:05:20.170Z,10.46
2016-08-19T01:06:20.801Z,10.36
2016-08-19T01:07:20.843Z,10.38
2016-08-19T01:08:19.441Z,10.34
2016-08-19T01:09:19.452Z,10.27
2016-08-19T01:10:19.474Z,10.15
2016-08-19T01:11:20.250Z,10.2
2016-08-19T01:12:20.224Z,10.09
2016-08-19T01:13:20.245Z,10.06
2016-08-19T01:14:20.276Z,10.12
2016-08-19T01:15:20.284Z,10.07
2016-08-19T01:16:19.659Z,10.05
2016-08-19T01:17:21.125Z,10.07
2016-08-19T01:18:21.057Z,9.92
2016-08-19T01:19:20.404Z,9.91
2016-08-19T01:20:20.438Z,10.02
2016-08-19T01:21:20.401Z,10.1
2016-08-19T01:22:19.713Z,10.05
2016-08-19T01:23:19.742Z,9.94
2016-08-19T01:24:19.757Z,9.94
2016-08-19T01:25:20.469Z,10.06
2016-08-19T01:26:20.510Z,10
2016-08-19T01:27:20.512Z,10.03
2016-08-19T01:28:20.542Z,10.06
2016-08-19T01:29:20.560Z,10.17
2016-08-19T01:30:20.575Z,10.06
2016-08-19T01:31:19.976Z,10.03
2016-08-19T01:32:21.324Z,10.02
2016-08-19T01:33:21.341Z,10.15
2016-08-19T01:34:20.647Z,10.07
2016-08-19T01:35:21.390Z,10.12
2016-08-19T01:36:21.408Z,10.03
2016-08-19T01:37:21.493Z,10.21
2016-08-19T01:38:21.434Z,10.13
2016-08-19T01:39:20.814Z,10.17
2016-08-19T01:40:21.483Z,10.1
2016-08-19T01:41:21.491Z,10.2
2016-08-19T01:42:20.152Z,10.09
2016-08-19T01:43:20.832Z,10.13
2016-08-19T01:44:21.553Z,10.13
2016-08-19T01:45:21.584Z,10.12
2016-08-19T01:46:20.891Z,10.06
2016-08-19T01:47:20.204Z,10.09
2016-08-19T01:48:21.644Z,10.09
2016-08-19T01:49:20.943Z,10.03
2016-08-19T01:50:21.008Z,10.02
2016-08-19T01:51:21.702Z,10
2016-08-19T01:52:21.732Z,9.91
2016-08-19T01:53:21.029Z,9.91
2016-08-19T01:54:21.049Z,9.85
2016-08-19T01:55:21.777Z,9.85
2016-08-19T01:56:21.791Z,9.7
2016-08-19T01:57:20.471Z,9.7
2016-08-19T01:58:21.842Z,9.74
2016-08-19T01:59:21.157Z,9.69
2016-08-19T02:00:21.167Z,9.63
2016-08-19T02:01:21.270Z,9.59
2016-08-19T02:02:21.922Z,9.55
2016-08-19T02:03:21.301Z,9.62
2016-08-19T02:04:20.530Z,9.58
2016-08-19T02:05:22.068Z,9.62
2016-08-19T02:06:21.990Z,9.58
2016-08-19T02:07:21.301Z,9.52
2016-08-19T02:08:21.321Z,9.54
2016-08-19T02:09:20.641Z,9.54
2016-08-19T02:10:21.361Z,9.55
2016-08-19T02:11:20.667Z,9.59
2016-08-19T02:12:21.387Z,9.56
2016-08-19T02:13:21.413Z,9.58
2016-08-19T02:14:21.419Z,9.62
2016-08-19T02:15:22.171Z,9.59
2016-08-19T02:16:21.472Z,9.64
2016-08-19T02:17:21.481Z,9.58
2016-08-19T02:18:22.220Z,9.58
2016-08-19T02:19:21.532Z,9.51
2016-08-19T02:20:21.529Z,9.52
2016-08-19T02:21:22.291Z,9.52
2016-08-19T02:22:21.576Z,9.45
2016-08-19T02:23:22.334Z,9.4
2016-08-19T02:24:22.321Z,9.4
2016-08-19T02:25:20.943Z,9.42
2016-08-19T02:26:22.361Z,9.44
2016-08-19T02:27:21.672Z,9.47
2016-08-19T02:28:21.702Z,9.48
2016-08-19T02:29:21.817Z,9.4
2016-08-19T02:30:21.743Z,9.42
2016-08-19T02:31:21.055Z,9.4
2016-08-19T02:32:21.826Z,9.4
2016-08-19T02:33:21.801Z,9.51
2016-08-19T02:34:21.808Z,9.44
2016-08-19T02:35:21.833Z,9.4
2016-08-19T02:36:21.858Z,9.37
2016-08-19T02:37:22.572Z,9.48
2016-08-19T02:38:22.073Z,9.48
2016-08-19T02:39:22.623Z,9.45
2016-08-19T02:40:21.938Z,9.48
2016-08-19T02:41:22.659Z,9.52
2016-08-19T02:42:22.673Z,9.47
2016-08-19T02:43:21.983Z,9.51
2016-08-19T02:44:22.015Z,9.47
2016-08-19T02:45:22.723Z,9.45
2016-08-19T02:46:22.052Z,9.55
2016-08-19T02:47:22.223Z,9.49
2016-08-19T02:48:22.789Z,9.52
2016-08-19T02:49:22.802Z,9.58
2016-08-19T02:50:21.411Z,9.64
2016-08-19T02:51:22.139Z,9.63
2016-08-19T02:52:21.458Z,9.63
2016-08-19T02:53:22.882Z,9.64
2016-08-19T02:54:22.212Z,9.64
2016-08-19T02:55:21.506Z,9.66
2016-08-19T02:56:22.263Z,9.74
2016-08-19T02:57:22.263Z,9.72
2016-08-19T02:58:22.961Z,9.76
2016-08-19T02:59:22.354Z,9.69
2016-08-19T03:00:23.028Z,9.66
2016-08-19T03:01:22.322Z,9.56
2016-08-19T03:02:21.652Z,9.56
2016-08-19T03:03:22.371Z,9.56
2016-08-19T03:04:22.381Z,9.59
2016-08-19T03:05:22.401Z,9.59
2016-08-19T03:06:22.511Z,9.62
2016-08-19T03:07:21.754Z,9.58
2016-08-19T03:08:21.845Z,9.52
2016-08-19T03:09:23.191Z,9.45
2016-08-19T03:10:22.490Z,9.42
2016-08-19T03:11:22.514Z,9.49
2016-08-19T03:12:23.239Z,9.42
2016-08-19T03:13:22.546Z,9.36
2016-08-19T03:14:22.789Z,9.45
2016-08-19T03:15:21.982Z,9.34
2016-08-19T03:16:22.701Z,9.33
2016-08-19T03:17:22.655Z,9.27
2016-08-19T03:18:23.364Z,9.26
2016-08-19T03:19:23.404Z,9.26
2016-08-19T03:20:22.704Z,9.12
2016-08-19T03:21:22.758Z,9.21
2016-08-19T03:22:22.743Z,9.16
2016-08-19T03:23:22.765Z,9.13
2016-08-19T03:24:22.201Z,9.13
2016-08-19T03:25:22.074Z,9.11
2016-08-19T03:26:23.513Z,9.08
2016-08-19T03:27:23.531Z,8.96
2016-08-19T03:28:22.183Z,9
2016-08-19T03:29:23.559Z,9.05
2016-08-19T03:30:23.722Z,8.97
2016-08-19T03:31:22.902Z,9
2016-08-19T03:32:23.062Z,8.9
2016-08-19T03:33:22.239Z,8.9
2016-08-19T03:34:22.258Z,8.79
2016-08-19T03:35:22.324Z,8.72
2016-08-19T03:36:23.702Z,8.69
2016-08-19T03:37:23.724Z,8.66
2016-08-19T03:38:22.321Z,8.57
2016-08-19T03:39:23.098Z,8.57
2016-08-19T03:40:23.778Z,8.57
2016-08-19T03:41:23.104Z,8.56
2016-08-19T03:42:23.812Z,8.45
2016-08-19T03:43:23.962Z,8.46
2016-08-19T03:44:23.864Z,8.49
2016-08-19T03:45:23.920Z,8.45
2016-08-19T03:46:23.892Z,8.49
2016-08-19T03:47:23.284Z,8.42
2016-08-19T03:48:23.924Z,8.44
2016-08-19T03:49:24.062Z,8.44
2016-08-19T03:50:23.263Z,8.44
2016-08-19T03:51:23.994Z,8.41
2016-08-19T03:52:23.313Z,8.46
2016-08-19T03:53:24.033Z,8.44
2016-08-19T03:54:22.643Z,8.42
2016-08-19T03:55:22.642Z,8.5
2016-08-19T03:56:24.111Z,8.42
2016-08-19T03:57:22.691Z,8.39
2016-08-19T03:58:24.113Z,8.41
2016-08-19T03:59:24.144Z,8.44
2016-08-19T04:00:22.742Z,8.38
2016-08-19T04:01:24.174Z,8.52
2016-08-19T04:02:23.492Z,8.42
2016-08-19T04:03:23.514Z,8.45
2016-08-19T04:04:23.521Z,8.44
2016-08-19T04:05:23.543Z,8.35
2016-08-19T04:06:22.856Z,8.42
2016-08-19T04:07:23.626Z,8.42
2016-08-19T04:08:23.591Z,8.46
2016-08-19T04:09:22.911Z,8.5
2016-08-19T04:10:23.627Z,8.5
2016-08-19T04:11:23.713Z,8.59
2016-08-19T04:12:24.371Z,8.5
2016-08-19T04:13:24.486Z,8.5
2016-08-19T04:14:24.430Z,8.61
2016-08-19T04:15:23.754Z,8.63
2016-08-19T04:16:23.743Z,8.68
2016-08-19T04:17:23.761Z,8.66
2016-08-19T04:18:23.789Z,8.64
2016-08-19T04:19:24.523Z,8.71
2016-08-19T04:20:24.533Z,8.74
2016-08-19T04:21:24.559Z,8.72
2016-08-19T04:22:24.574Z,8.72
2016-08-19T04:23:23.181Z,8.66
2016-08-19T04:24:23.181Z,8.72
2016-08-19T04:25:24.601Z,8.75
2016-08-19T04:26:24.000Z,8.78
2016-08-19T04:27:24.647Z,8.79
2016-08-19T04:28:24.071Z,8.89
2016-08-19T04:29:24.694Z,8.97
2016-08-19T04:30:24.719Z,8.9
2016-08-19T04:31:24.730Z,8.89
2016-08-19T04:32:24.030Z,8.87
2016-08-19T04:33:24.060Z,8.84
2016-08-19T04:34:23.456Z,8.86
2016-08-19T04:35:24.937Z,8.81
2016-08-19T04:36:24.112Z,8.86
2016-08-19T04:37:24.170Z,8.89
2016-08-19T04:38:24.147Z,8.77
2016-08-19T04:39:24.169Z,8.81
2016-08-19T04:40:24.203Z,8.9
2016-08-19T04:41:25.009Z,8.86
2016-08-19T04:42:24.414Z,8.9
2016-08-19T04:43:24.238Z,8.86
2016-08-19T04:44:23.571Z,8.9
2016-08-19T04:45:23.565Z,8.89
2016-08-19T04:46:24.312Z,8.89
2016-08-19T04:47:24.331Z,8.87
2016-08-19T04:48:25.191Z,8.86
2016-08-19T04:49:25.069Z,8.97
2016-08-19T04:50:23.669Z,9
2016-08-19T04:51:23.822Z,8.97
2016-08-19T04:52:25.151Z,9.08
2016-08-19T04:53:24.513Z,9.03
2016-08-19T04:54:24.462Z,9.15
2016-08-19T04:55:25.383Z,9.08
2016-08-19T04:56:23.788Z,9.16
2016-08-19T04:57:23.812Z,9.18
2016-08-19T04:58:24.543Z,9.13
2016-08-19T04:59:24.692Z,9.18
2016-08-19T05:00:25.271Z,9.13
2016-08-19T05:01:24.704Z,9.19
2016-08-19T05:02:24.615Z,9.22
2016-08-19T05:03:24.642Z,9.27
2016-08-19T05:04:23.936Z,9.26
2016-08-19T05:05:24.649Z,9.3
2016-08-19T05:06:24.812Z,9.33
2016-08-19T05:07:25.411Z,9.34
2016-08-19T05:08:24.718Z,9.36
2016-08-19T05:09:24.745Z,9.42
2016-08-19T05:10:24.820Z,9.48
2016-08-19T05:11:25.493Z,9.37
2016-08-19T05:12:24.793Z,9.42
2016-08-19T05:13:24.807Z,9.36
2016-08-19T05:14:25.611Z,9.47
2016-08-19T05:15:24.131Z,9.34
2016-08-19T05:16:25.577Z,9.47
2016-08-19T05:17:24.176Z,9.42
2016-08-19T05:18:25.119Z,9.48
2016-08-19T05:19:25.630Z,9.44
2016-08-19T05:20:24.950Z,9.47
2016-08-19T05:21:24.965Z,9.45
2016-08-19T05:22:24.993Z,9.45
2016-08-19T05:23:25.000Z,9.63
2016-08-19T05:24:24.313Z,9.63
2016-08-19T05:25:25.102Z,9.67
2016-08-19T05:26:25.760Z,9.69
2016-08-19T05:27:25.174Z,9.74
2016-08-19T05:28:25.096Z,9.92
2016-08-19T05:29:25.821Z,9.97
2016-08-19T05:30:25.838Z,10.18
2016-08-19T05:31:26.006Z,10.9
2016-08-19T05:32:25.955Z,12.14
2016-08-19T05:33:25.184Z,13.58
2016-08-19T05:34:25.945Z,15.11
2016-08-19T05:35:25.963Z,16.46
2016-08-19T05:36:25.974Z,17.84
2016-08-19T05:37:26.007Z,18.94
2016-08-19T05:38:26.017Z,20.08
2016-08-19T05:39:26.032Z,20.89
2016-08-19T05:40:25.345Z,21.84
2016-08-19T05:41:26.064Z,22.56
2016-08-19T05:42:25.433Z,23.18
2016-08-19T05:43:25.400Z,23.86
2016-08-19T05:44:26.131Z,24.38
2016-08-19T05:45:26.151Z,25
2016-08-19T05:46:25.465Z,25.56
2016-08-19T05:47:26.214Z,26.03
2016-08-19T05:48:24.821Z,26.29
2016-08-19T05:49:25.544Z,26.79
2016-08-19T05:50:25.582Z,27.37
2016-08-19T05:51:25.593Z,27.73
2016-08-19T05:52:26.344Z,28.15
2016-08-19T05:53:25.643Z,28.47
2016-08-19T05:54:26.385Z,28.89
2016-08-19T05:55:26.410Z,29.2
2016-08-19T05:56:26.433Z,29.57
2016-08-19T05:57:26.450Z,29.87
2016-08-19T05:58:25.778Z,30.11
2016-08-19T05:59:25.817Z,30.39
2016-08-19T06:00:25.141Z,30.83
2016-08-19T06:01:26.563Z,31.04
2016-08-19T06:02:25.961Z,31.35
2016-08-19T06:03:26.618Z,31.62
2016-08-19T06:04:26.664Z,31.78
2016-08-19T06:05:25.977Z,31.95
2016-08-19T06:06:26.710Z,32.24
2016-08-19T06:07:26.729Z,32.38
2016-08-19T06:08:26.067Z,32.61
2016-08-19T06:09:26.191Z,32.66
2016-08-19T06:10:26.807Z,32.51
2016-08-19T06:11:26.849Z,32.49
2016-08-19T06:12:26.858Z,32.73
2016-08-19T06:13:27.016Z,32.98
2016-08-19T06:14:26.937Z,33.23
2016-08-19T06:15:27.027Z,33.65
2016-08-19T06:16:26.276Z,34.07
2016-08-19T06:17:27.015Z,34.24
2016-08-19T06:18:27.051Z,34.5
2016-08-19T06:19:27.071Z,34.85
2016-08-19T06:20:26.403Z,35
2016-08-19T06:21:27.137Z,35.04
2016-08-19T06:22:26.462Z,35.18
2016-08-19T06:23:26.489Z,35.38
2016-08-19T06:24:26.513Z,35.03
2016-08-19T06:25:26.622Z,34.89
2016-08-19T06:26:25.867Z,34.62
2016-08-19T06:27:27.311Z,33.82
2016-08-19T06:28:26.653Z,33.12
2016-08-19T06:29:27.370Z,32.71
2016-08-19T06:30:26.688Z,32.54
2016-08-19T06:31:26.742Z,32.45
2016-08-19T06:32:27.442Z,32.05
2016-08-19T06:33:27.538Z,31.95
2016-08-19T06:34:26.118Z,31.78
2016-08-19T06:35:26.162Z,31.85
2016-08-19T06:36:26.874Z,32.27
2016-08-19T06:37:26.916Z,32.38
2016-08-19T06:38:27.022Z,32.6
2016-08-19T06:39:26.972Z,32.98
2016-08-19T06:40:26.359Z,33.28
2016-08-19T06:41:27.742Z,33.32
2016-08-19T06:42:27.849Z,32.6
2016-08-19T06:43:27.104Z,32.61
2016-08-19T06:44:27.147Z,32.24
2016-08-19T06:45:27.171Z,31.42
2016-08-19T06:46:27.202Z,30.78
2016-08-19T06:47:27.223Z,30.56
2016-08-19T06:48:27.273Z,31.04
2016-08-19T06:49:27.325Z,31.44
2016-08-19T06:50:27.322Z,31.36
2016-08-19T06:51:27.351Z,31.6
2016-08-19T06:52:26.682Z,31.87
2016-08-19T06:53:28.135Z,32.37
2016-08-19T06:54:27.453Z,32.79
2016-08-19T06:55:27.484Z,33.22
2016-08-19T06:56:26.835Z,33.12
2016-08-19T06:57:27.551Z,33
2016-08-19T06:58:27.587Z,32.64
2016-08-19T06:59:27.594Z,32.26
2016-08-19T07:00:27.634Z,32.37
2016-08-19T07:01:28.632Z,32.23
2016-08-19T07:02:28.422Z,32.23
2016-08-19T07:03:27.743Z,31.39
2016-08-19T07:04:27.074Z,30.69
2016-08-19T07:05:27.803Z,30.55
2016-08-19T07:06:28.560Z,30.14
2016-08-19T07:07:27.876Z,30.21
2016-08-19T07:08:27.893Z,30.33
2016-08-19T07:09:28.634Z,30.61
2016-08-19T07:10:27.968Z,30.36
2016-08-19T07:11:27.293Z,30.77
2016-08-19T07:12:28.734Z,30.99
2016-08-19T07:13:27.361Z,30.93
2016-08-19T07:14:28.792Z,31.41
2016-08-19T07:15:28.812Z,31.47
2016-08-19T07:16:28.156Z,31.54
2016-08-19T07:17:27.484Z,31.69
2016-08-19T07:18:28.925Z,31.66
2016-08-19T07:19:28.956Z,31.42
2016-08-19T07:20:28.586Z,31.39
2016-08-19T07:21:27.612Z,30.85
2016-08-19T07:22:27.645Z,30.71
2016-08-19T07:23:29.084Z,30.17
2016-08-19T07:24:27.704Z,30.13
2016-08-19T07:25:29.170Z,30.7
2016-08-19T07:26:28.574Z,30.63
2016-08-19T07:27:28.634Z,30.88
2016-08-19T07:28:28.604Z,30.95
2016-08-19T07:29:29.290Z,30.95
2016-08-19T07:30:29.002Z,30.99
2016-08-19T07:31:28.792Z,31.47
2016-08-19T07:32:28.662Z,30.88
2016-08-19T07:33:28.704Z,31.1
2016-08-19T07:34:28.046Z,31.3
2016-08-19T07:35:28.044Z,31.22
2016-08-19T07:36:29.493Z,30.76
2016-08-19T07:37:28.832Z,30.55
2016-08-19T07:38:28.264Z,30.69
2016-08-19T07:39:29.593Z,30.71
2016-08-19T07:40:29.645Z,31.02
2016-08-19T07:41:29.677Z,31.15
2016-08-19T07:42:28.271Z,31.66
2016-08-19T07:43:29.023Z,31.42
2016-08-19T07:44:29.768Z,31.11
2016-08-19T07:45:29.784Z,30.83
2016-08-19T07:46:29.814Z,30.54
2016-08-19T07:47:29.273Z,30.89
2016-08-19T07:48:29.173Z,31.23
2016-08-19T07:49:29.273Z,31.25
2016-08-19T07:50:29.239Z,31.13
2016-08-19T07:51:29.989Z,30.8
2016-08-19T07:52:29.303Z,30.36
2016-08-19T07:53:29.335Z,29.89
2016-08-19T07:54:29.375Z,29.58
2016-08-19T07:55:30.114Z,29.18
2016-08-19T07:56:29.421Z,28.97
2016-08-19T07:57:30.173Z,28.72
2016-08-19T07:58:30.233Z,28.28
2016-08-19T07:59:30.246Z,27.66
2016-08-19T08:00:30.243Z,26.86
2016-08-19T08:01:29.582Z,26.08
2016-08-19T08:02:30.428Z,25.29
2016-08-19T08:03:30.353Z,24.63
2016-08-19T08:04:29.669Z,23.88
2016-08-19T08:05:30.420Z,23.16
2016-08-19T08:06:29.113Z,22.68
2016-08-19T08:07:29.780Z,22.21
2016-08-19T08:08:29.797Z,21.8
2016-08-19T08:09:29.924Z,21.32
2016-08-19T08:10:29.847Z,21.14
2016-08-19T08:11:30.643Z,20.89
2016-08-19T08:12:29.918Z,20.82
2016-08-19T08:13:29.936Z,20.64
2016-08-19T08:14:29.953Z,20.55
2016-08-19T08:15:30.008Z,20.36
2016-08-19T08:16:29.322Z,20.36
2016-08-19T08:17:30.065Z,20.3
2016-08-19T08:18:29.365Z,20.22
2016-08-19T08:19:30.809Z,20.15
2016-08-19T08:20:30.165Z,20.18
2016-08-19T08:21:30.871Z,20.24
2016-08-19T08:22:30.185Z,20.22
2016-08-19T08:23:30.215Z,20.14
2016-08-19T08:24:30.233Z,20.15
2016-08-19T08:25:29.553Z,20.21
2016-08-19T08:26:30.280Z,20.3
2016-08-19T08:27:30.452Z,20.39
2016-08-19T08:28:30.340Z,20.44
2016-08-19T08:29:30.365Z,20.49
2016-08-19T08:30:31.093Z,20.44
2016-08-19T08:31:31.229Z,20.52
2016-08-19T08:32:29.821Z,20.42
2016-08-19T08:33:31.174Z,20.42
2016-08-19T08:34:29.803Z,20.55
2016-08-19T08:35:29.798Z,20.52
2016-08-19T08:36:31.257Z,20.49
2016-08-19T08:37:30.553Z,20.53
2016-08-19T08:38:30.719Z,20.59
2016-08-19T08:39:31.319Z,20.71
2016-08-19T08:40:31.441Z,20.68
2016-08-19T08:41:30.038Z,20.67
2016-08-19T08:42:31.392Z,20.66
2016-08-19T08:43:30.014Z,20.67
2016-08-19T08:44:30.743Z,20.63
2016-08-19T08:45:31.505Z,20.63
2016-08-19T08:46:30.803Z,20.77
2016-08-19T08:47:30.161Z,20.78
2016-08-19T08:48:31.537Z,20.8
2016-08-19T08:49:30.253Z,20.86
2016-08-19T08:50:30.263Z,20.83
2016-08-19T08:51:30.994Z,20.86
2016-08-19T08:52:31.655Z,20.9
2016-08-19T08:53:31.686Z,20.89
2016-08-19T08:54:30.993Z,20.86
2016-08-19T08:55:31.776Z,20.92
2016-08-19T08:56:30.357Z,20.86
2016-08-19T08:57:31.052Z,20.85
2016-08-19T08:58:32.002Z,20.93
2016-08-19T08:59:31.964Z,20.88
2016-08-19T09:00:32.365Z,20.93
2016-08-19T09:01:31.946Z,20.86
2016-08-19T09:02:31.963Z,20.89
2016-08-19T09:03:32.023Z,20.9
2016-08-19T09:04:31.273Z,21.05
2016-08-19T09:05:31.979Z,21.15
2016-08-19T09:06:31.994Z,21.13
2016-08-19T09:07:32.038Z,21.2
2016-08-19T09:08:32.097Z,21.07
2016-08-19T09:09:31.355Z,21.13
2016-08-19T09:10:32.085Z,21.1
2016-08-19T09:11:31.471Z,21.01
2016-08-19T09:12:30.732Z,20.93
2016-08-19T09:13:32.163Z,20.98
2016-08-19T09:14:32.188Z,20.88
2016-08-19T09:15:32.220Z,20.93
2016-08-19T09:16:32.233Z,21.04
2016-08-19T09:17:31.554Z,21.23
2016-08-19T09:18:31.583Z,21.2
2016-08-19T09:19:31.596Z,21.23
2016-08-19T09:20:32.333Z,21.25
2016-08-19T09:21:32.385Z,21.29
2016-08-19T09:22:32.395Z,21.32
2016-08-19T09:23:32.430Z,21.44
2016-08-19T09:24:32.441Z,21.56
2016-08-19T09:25:31.744Z,21.56
2016-08-19T09:26:32.482Z,21.63
2016-08-19T09:27:32.515Z,21.58
2016-08-19T09:28:31.124Z,21.62
2016-08-19T09:29:31.843Z,21.6
2016-08-19T09:30:32.631Z,21.45
2016-08-19T09:31:32.601Z,21.58
2016-08-19T09:32:32.674Z,21.51
2016-08-19T09:33:31.942Z,21.53
2016-08-19T09:34:32.672Z,21.48
2016-08-19T09:35:31.291Z,21.44
2016-08-19T09:36:32.020Z,21.41
2016-08-19T09:37:32.204Z,21.45
2016-08-19T09:38:32.784Z,21.38
2016-08-19T09:39:31.492Z,21.43
2016-08-19T09:40:32.172Z,21.51
2016-08-19T09:41:31.502Z,21.65
2016-08-19T09:42:32.177Z,21.6
2016-08-19T09:43:32.195Z,21.6
2016-08-19T09:44:32.236Z,21.6
2016-08-19T09:45:32.944Z,21.58
2016-08-19T09:46:32.985Z,21.48
2016-08-19T09:47:32.285Z,21.65
2016-08-19T09:48:33.033Z,21.51
2016-08-19T09:49:31.720Z,21.53
2016-08-19T09:50:31.665Z,21.5
2016-08-19T09:51:32.416Z,21.66
2016-08-19T09:52:33.117Z,21.7
2016-08-19T09:53:33.164Z,21.88
2016-08-19T09:54:32.474Z,21.84
2016-08-19T09:55:32.500Z,21.89
2016-08-19T09:56:32.517Z,21.72
2016-08-19T09:57:31.829Z,21.68
2016-08-19T09:58:32.574Z,21.65
2016-08-19T09:59:31.971Z,21.65
2016-08-19T10:00:33.321Z,21.69
2016-08-19T10:01:33.359Z,21.75
2016-08-19T10:02:32.728Z,21.84
2016-08-19T10:03:31.990Z,21.85
2016-08-19T10:04:33.437Z,21.88
2016-08-19T10:05:32.030Z,21.85
2016-08-19T10:06:33.468Z,22.07
2016-08-19T10:07:32.787Z,22.08
2016-08-19T10:08:33.559Z,22
2016-08-19T10:09:32.842Z,21.97
2016-08-19T10:10:32.260Z,22
2016-08-19T10:11:32.894Z,21.89
2016-08-19T10:12:32.915Z,21.89
2016-08-19T10:13:32.235Z,21.83
2016-08-19T10:14:32.978Z,21.89
2016-08-19T10:15:33.002Z,21.84
2016-08-19T10:16:33.027Z,21.84
2016-08-19T10:17:33.060Z,21.8
2016-08-19T10:18:33.074Z,21.85
2016-08-19T10:19:33.178Z,21.99
2016-08-19T10:20:33.132Z,22.04
2016-08-19T10:21:33.131Z,22.07
2016-08-19T10:22:33.864Z,22.07
2016-08-19T10:23:33.897Z,22.06
2016-08-19T10:24:33.211Z,22.07
2016-08-19T10:25:32.541Z,22.04
2016-08-19T10:26:33.248Z,22.1
2016-08-19T10:27:33.999Z,22.28
2016-08-19T10:28:34.032Z,22.15
2016-08-19T10:29:34.051Z,22.14
2016-08-19T10:30:33.372Z,22.14
2016-08-19T10:31:34.092Z,22.36
2016-08-19T10:32:34.203Z,22.26
2016-08-19T10:33:33.441Z,22.37
2016-08-19T10:34:33.472Z,22.51
2016-08-19T10:35:33.569Z,22.53
2016-08-19T10:36:33.532Z,22.67
2016-08-19T10:37:33.563Z,22.71
2016-08-19T10:38:34.301Z,22.77
2016-08-19T10:39:34.301Z,22.88
2016-08-19T10:40:34.318Z,22.91
2016-08-19T10:41:33.638Z,22.93
2016-08-19T10:42:33.671Z,22.89
2016-08-19T10:43:34.390Z,22.93
2016-08-19T10:44:33.712Z,22.92
2016-08-19T10:45:34.454Z,23.01
2016-08-19T10:46:34.490Z,22.95
2016-08-19T10:47:34.490Z,22.96
2016-08-19T10:48:33.820Z,22.83
2016-08-19T10:49:34.550Z,22.83
2016-08-19T10:50:33.882Z,22.67
2016-08-19T10:51:34.593Z,22.63
2016-08-19T10:52:33.975Z,22.63
2016-08-19T10:53:33.951Z,22.65
2016-08-19T10:54:33.977Z,22.65
2016-08-19T10:55:34.899Z,22.61
2016-08-19T10:56:34.762Z,22.68
2016-08-19T10:57:34.054Z,22.63
2016-08-19T10:58:33.372Z,22.81
2016-08-19T10:59:34.104Z,22.83
2016-08-19T11:00:34.142Z,22.86
2016-08-19T11:01:34.870Z,22.95
2016-08-19T11:02:34.183Z,23.06
2016-08-19T11:03:34.921Z,23.01
2016-08-19T11:04:34.949Z,22.99
2016-08-19T11:05:34.964Z,22.93
2016-08-19T11:06:34.991Z,23.01
2016-08-19T11:07:34.408Z,22.91
2016-08-19T11:08:34.340Z,22.95
2016-08-19T11:09:35.071Z,23.02
2016-08-19T11:10:34.390Z,23.13
2016-08-19T11:11:35.127Z,23.17
2016-08-19T11:12:34.449Z,23.26
2016-08-19T11:13:33.763Z,23.26
2016-08-19T11:14:34.501Z,23.23
2016-08-19T11:15:33.811Z,23.29
2016-08-19T11:16:33.841Z,23.28
2016-08-19T11:17:34.600Z,23.08
2016-08-19T11:18:35.350Z,23.08
2016-08-19T11:19:35.338Z,22.98
2016-08-19T11:20:34.643Z,22.77
2016-08-19T11:21:34.670Z,22.67
2016-08-19T11:22:34.693Z,22.58
2016-08-19T11:23:34.725Z,22.46
2016-08-19T11:24:34.733Z,22.41
2016-08-19T11:25:34.712Z,22.28
2016-08-19T11:26:35.643Z,22.4
2016-08-19T11:27:35.155Z,22.47
2016-08-19T11:28:35.685Z,22.4
2016-08-19T11:29:35.036Z,22.36
2016-08-19T11:30:35.603Z,22.36
2016-08-19T11:31:35.683Z,22.58
2016-08-19T11:32:35.701Z,22.63
2016-08-19T11:33:35.749Z,22.73
2016-08-19T11:34:34.312Z,22.73
2016-08-19T11:35:35.172Z,22.93
2016-08-19T11:36:35.225Z,23.08
2016-08-19T11:37:35.081Z,23.14
2016-08-19T11:38:35.149Z,23.26
2016-08-19T11:39:35.881Z,23.39
2016-08-19T11:40:35.967Z,23.37
2016-08-19T11:41:35.198Z,23.51
2016-08-19T11:42:35.971Z,23.48
2016-08-19T11:43:35.236Z,23.28
2016-08-19T11:44:35.968Z,23.28
2016-08-19T11:45:34.660Z,23.13
2016-08-19T11:46:35.313Z,23.18
2016-08-19T11:47:36.057Z,23.14
2016-08-19T11:48:36.094Z,23.13
2016-08-19T11:49:35.385Z,23.02
2016-08-19T11:50:35.432Z,23.06
2016-08-19T11:51:34.739Z,22.98
2016-08-19T11:52:36.178Z,22.92
2016-08-19T11:53:35.491Z,22.99
2016-08-19T11:54:36.210Z,23.11
2016-08-19T11:55:35.534Z,23.34
2016-08-19T11:56:34.949Z,23.51
2016-08-19T11:57:34.894Z,23.81
2016-08-19T11:58:35.629Z,23.99
2016-08-19T11:59:36.348Z,24.26
2016-08-19T12:00:36.402Z,24.41
2016-08-19T12:01:35.706Z,24.55
2016-08-19T12:02:36.454Z,24.68
2016-08-19T12:03:36.469Z,24.89
2016-08-19T12:04:35.780Z,25.11
2016-08-19T12:05:35.808Z,25.22
2016-08-19T12:06:36.530Z,25.33
2016-08-19T12:07:35.859Z,25.34
2016-08-19T12:08:36.580Z,25.39
2016-08-19T12:09:36.623Z,25.54
2016-08-19T12:10:36.647Z,25.58
2016-08-19T12:11:35.976Z,25.62
2016-08-19T12:12:35.982Z,25.59
2016-08-19T12:13:36.019Z,25.58
2016-08-19T12:14:36.758Z,25.48
2016-08-19T12:15:36.050Z,25.56
2016-08-19T12:16:36.132Z,25.55
2016-08-19T12:17:36.819Z,25.37
2016-08-19T12:18:36.229Z,25.49
2016-08-19T12:19:36.169Z,25.39
2016-08-19T12:20:35.482Z,25.33
2016-08-19T12:21:36.236Z,25.29
2016-08-19T12:22:36.990Z,25.31
2016-08-19T12:23:36.281Z,25.34
2016-08-19T12:24:36.296Z,25.44
2016-08-19T12:25:36.329Z,25.52
2016-08-19T12:26:36.351Z,25.59
2016-08-19T12:27:37.101Z,25.56
2016-08-19T12:28:36.427Z,25.63
2016-08-19T12:29:36.480Z,25.63
2016-08-19T12:30:37.170Z,25.63
2016-08-19T12:31:36.513Z,25.67
2016-08-19T12:32:37.259Z,25.58
2016-08-19T12:33:37.260Z,25.46
2016-08-19T12:34:36.570Z,25.52
2016-08-19T12:35:36.603Z,25.55
2016-08-19T12:36:37.328Z,25.43
2016-08-19T12:37:36.661Z,25.3
2016-08-19T12:38:37.392Z,25.33
2016-08-19T12:39:36.701Z,25.26
2016-08-19T12:40:37.452Z,25.25
2016-08-19T12:41:36.770Z,25.21
2016-08-19T12:42:36.085Z,24.89
2016-08-19T12:43:37.512Z,24.71
2016-08-19T12:44:37.572Z,24.74
2016-08-19T12:45:37.583Z,24.78
2016-08-19T12:46:36.882Z,24.93
2016-08-19T12:47:36.931Z,25.07
2016-08-19T12:48:37.660Z,25.04
2016-08-19T12:49:36.971Z,25.06
2016-08-19T12:50:37.003Z,25.04
2016-08-19T12:51:37.116Z,25.14
2016-08-19T12:52:37.742Z,25.16
2016-08-19T12:53:37.812Z,25.19
2016-08-19T12:54:37.109Z,25.21
2016-08-19T12:55:37.134Z,25.22
2016-08-19T12:56:37.174Z,25.19
2016-08-19T12:57:36.501Z,25.19
2016-08-19T12:58:37.247Z,25.19
2016-08-19T12:59:36.510Z,25.16
2016-08-19T13:00:37.293Z,25.16
2016-08-19T13:01:38.006Z,25.06
2016-08-19T13:02:37.381Z,25.09